createdAt,value
2023-01-17T00:02:14.485Z,3.70
2023-01-17T00:04:59.858Z,3.60
2023-01-17T00:07:46.303Z,3.70
2023-01-17T00:10:21.982Z,3.70
2023-01-17T00:12:51.890Z,3.70
2023-01-17T00:15:23.699Z,3.60
2023-01-17T00:17:51.472Z,3.70
2023-01-17T00:20:39.157Z,3.70
2023-01-17T00:23:43.492Z,3.70
2023-01-17T00:26:16.981Z,3.70
2023-01-17T00:28:45.168Z,3.70
2023-01-17T00:31:13.445Z,3.90
2023-01-17T00:33:40.373Z,3.80
2023-01-17T00:36:08.401Z,3.90
2023-01-17T00:38:37.753Z,3.80
2023-01-17T00:41:14.233Z,3.80
2023-01-17T00:44:00.199Z,3.90
2023-01-17T00:46:45.581Z,3.80
2023-01-17T00:49:30.912Z,3.90
2023-01-17T00:52:16.114Z,3.90
2023-01-17T00:55:01.355Z,3.90
2023-01-17T00:57:46.714Z,3.90
2023-01-17T01:00:32.474Z,4.00
2023-01-17T01:03:17.807Z,3.90
2023-01-17T01:06:03.053Z,3.90
2023-01-17T01:08:49.019Z,3.90
2023-01-17T01:11:38.346Z,3.90
2023-01-17T01:14:25.376Z,3.90
2023-01-17T01:17:10.716Z,3.90
2023-01-17T01:19:56.232Z,3.90
2023-01-17T01:22:41.537Z,4.00
2023-01-17T01:25:27.257Z,3.90
2023-01-17T01:28:21.011Z,3.90
2023-01-17T01:31:06.262Z,4.00
2023-01-17T01:33:33.037Z,3.90
2023-01-17T01:35:59.854Z,3.90
2023-01-17T01:38:26.734Z,3.90
2023-01-17T01:40:56.715Z,3.90
2023-01-17T01:43:43.772Z,4.00
2023-01-17T01:46:15.567Z,3.90
2023-01-17T01:48:59.044Z,4.00
2023-01-17T01:51:40.600Z,4.00
2023-01-17T01:54:13.955Z,4.00
2023-01-17T01:56:41.616Z,4.00
2023-01-17T01:59:11.318Z,4.00
2023-01-17T02:01:38.359Z,4.10
2023-01-17T02:04:10.912Z,4.10
2023-01-17T02:06:47.973Z,4.10
2023-01-17T02:09:17.018Z,4.10
2023-01-17T02:11:44.522Z,4.10
2023-01-17T02:14:22.392Z,4.10
2023-01-17T02:17:01.144Z,4.10
2023-01-17T02:19:40.476Z,4.10
2023-01-17T02:22:21.888Z,4.10
2023-01-17T02:25:10.513Z,4.10
2023-01-17T02:28:21.088Z,4.00
2023-01-17T02:30:59.086Z,4.00
2023-01-17T02:33:50.975Z,4.10
2023-01-17T02:36:36.717Z,4.10
2023-01-17T02:39:21.554Z,4.10
2023-01-17T02:41:54.755Z,4.00
2023-01-17T02:44:22.809Z,4.10
2023-01-17T02:46:55.418Z,4.10
2023-01-17T02:49:26.726Z,4.00
2023-01-17T02:52:30.175Z,4.00
2023-01-17T02:55:31.441Z,4.00
2023-01-17T02:58:41.186Z,4.00
2023-01-17T03:01:30.338Z,3.90
2023-01-17T03:04:23.561Z,3.90
2023-01-17T03:07:10.310Z,4.00
2023-01-17T03:09:38.556Z,3.90
2023-01-17T03:12:06.324Z,3.90
2023-01-17T03:14:33.113Z,3.90
2023-01-17T03:16:59.914Z,3.90
2023-01-17T03:19:26.671Z,3.90
2023-01-17T03:21:53.953Z,3.90
2023-01-17T03:24:20.739Z,3.80
2023-01-17T03:26:47.971Z,3.80
2023-01-17T03:29:16.604Z,3.80
2023-01-17T03:31:43.422Z,3.80
2023-01-17T03:34:10.219Z,3.90
2023-01-17T03:36:37.009Z,3.90
2023-01-17T03:39:04.106Z,3.80
2023-01-17T03:41:30.925Z,3.90
2023-01-17T03:43:57.708Z,3.90
2023-01-17T03:46:28.630Z,3.90
2023-01-17T03:48:55.443Z,3.90
2023-01-17T03:51:22.345Z,3.90
2023-01-17T03:53:50.089Z,4.00
2023-01-17T03:56:16.938Z,3.90
2023-01-17T03:58:43.809Z,4.00
2023-01-17T04:01:11.216Z,4.00
2023-01-17T04:03:38.116Z,3.90
2023-01-17T04:06:05.207Z,3.90
2023-01-17T04:08:32.033Z,3.80
2023-01-17T04:10:58.855Z,3.80
2023-01-17T04:13:25.873Z,3.80
2023-01-17T04:15:52.745Z,3.80
2023-01-17T04:18:21.025Z,3.70
2023-01-17T04:20:47.857Z,3.80
2023-01-17T04:23:14.706Z,3.80
2023-01-17T04:25:42.917Z,3.80
2023-01-17T04:28:10.853Z,3.80
2023-01-17T04:30:37.767Z,3.80
2023-01-17T04:33:04.671Z,3.80
2023-01-17T04:35:33.466Z,3.90
2023-01-17T04:38:00.778Z,3.90
2023-01-17T04:40:29.707Z,3.80
2023-01-17T04:42:59.668Z,3.80
2023-01-17T04:45:26.617Z,3.80
2023-01-17T04:47:53.370Z,3.80
2023-01-17T04:50:20.218Z,3.80
2023-01-17T04:52:47.177Z,3.80
2023-01-17T04:55:14.050Z,3.70
2023-01-17T04:57:40.973Z,3.70
2023-01-17T05:00:09.129Z,3.70
2023-01-17T05:02:36.203Z,3.70
2023-01-17T05:05:03.074Z,3.70
2023-01-17T05:07:29.877Z,3.70
2023-01-17T05:09:56.801Z,3.70
2023-01-17T05:12:23.903Z,3.80
2023-01-17T05:14:51.491Z,3.80
2023-01-17T05:17:18.356Z,3.70
2023-01-17T05:19:46.060Z,3.60
2023-01-17T05:22:16.263Z,3.70
2023-01-17T05:24:47.719Z,3.60
2023-01-17T05:27:15.560Z,3.60
2023-01-17T05:29:42.435Z,3.60
2023-01-17T05:32:09.348Z,3.60
2023-01-17T05:34:36.213Z,3.60
2023-01-17T05:37:03.117Z,3.60
2023-01-17T05:39:31.021Z,3.60
2023-01-17T05:41:58.259Z,3.60
2023-01-17T05:44:25.332Z,3.60
2023-01-17T05:46:52.158Z,3.60
2023-01-17T05:49:19.020Z,3.50
2023-01-17T05:51:45.802Z,3.60
2023-01-17T05:54:12.587Z,3.50
2023-01-17T05:56:39.462Z,3.60
2023-01-17T05:59:06.299Z,3.60
2023-01-17T06:01:33.068Z,3.60
2023-01-17T06:03:59.878Z,3.60
2023-01-17T06:06:26.674Z,3.60
2023-01-17T06:08:53.453Z,3.60
2023-01-17T06:11:20.272Z,3.60
2023-01-17T06:13:49.116Z,3.50
2023-01-17T06:16:16.215Z,3.50
2023-01-17T06:18:43.070Z,3.50
2023-01-17T06:21:10.296Z,3.50
2023-01-17T06:23:37.275Z,3.50
2023-01-17T06:26:04.915Z,3.40
2023-01-17T06:28:31.777Z,3.40
2023-01-17T06:30:59.951Z,3.30
2023-01-17T06:33:27.035Z,3.20
2023-01-17T06:35:54.647Z,3.30
2023-01-17T06:38:21.890Z,3.30
2023-01-17T06:40:51.846Z,3.20
2023-01-17T06:43:18.605Z,3.20
2023-01-17T06:45:45.403Z,3.10
2023-01-17T06:48:12.415Z,3.10
2023-01-17T06:50:39.254Z,3.00
2023-01-17T06:53:08.118Z,3.00
2023-01-17T06:55:35.332Z,3.00
2023-01-17T06:58:05.407Z,3.00
2023-01-17T07:00:35.173Z,3.00
2023-01-17T07:03:02.451Z,3.00
2023-01-17T07:05:49.699Z,2.90
2023-01-17T07:08:37.135Z,3.00
2023-01-17T07:11:10.993Z,3.00
2023-01-17T07:13:38.568Z,3.10
2023-01-17T07:16:06.656Z,2.90
2023-01-17T07:18:34.254Z,2.90
2023-01-17T07:21:01.391Z,2.90
2023-01-17T07:23:28.192Z,2.90
2023-01-17T07:25:59.805Z,2.90
2023-01-17T07:28:28.383Z,2.90
2023-01-17T07:30:55.464Z,2.80
2023-01-17T07:33:22.471Z,2.90
2023-01-17T07:35:49.284Z,3.00
2023-01-17T07:38:18.251Z,2.90
2023-01-17T07:40:46.201Z,3.00
2023-01-17T07:43:14.204Z,3.00
2023-01-17T07:45:44.861Z,3.10
2023-01-17T07:48:12.608Z,3.40
2023-01-17T07:50:39.691Z,3.90
2023-01-17T07:53:06.537Z,4.40
2023-01-17T07:55:33.576Z,4.50
2023-01-17T07:58:02.864Z,4.70
2023-01-17T08:00:30.164Z,4.90
2023-01-17T08:03:01.282Z,5.00
2023-01-17T08:05:30.891Z,4.90
2023-01-17T08:07:57.698Z,5.00
2023-01-17T08:10:24.581Z,5.30
2023-01-17T08:12:51.427Z,5.30
2023-01-17T08:15:18.499Z,5.50
2023-01-17T08:17:47.133Z,5.60
2023-01-17T08:20:14.461Z,5.70
2023-01-17T08:22:41.287Z,5.80
2023-01-17T08:25:08.696Z,5.80
2023-01-17T08:27:36.315Z,5.70
2023-01-17T08:30:03.588Z,5.70
2023-01-17T08:32:30.453Z,5.80
2023-01-17T08:34:57.779Z,5.70
2023-01-17T08:37:24.842Z,5.50
2023-01-17T08:39:51.629Z,5.50
2023-01-17T08:42:18.789Z,5.20
2023-01-17T08:44:45.573Z,5.20
2023-01-17T08:47:12.446Z,5.20
2023-01-17T08:49:39.261Z,5.00
2023-01-17T08:52:06.478Z,5.00
2023-01-17T08:54:33.553Z,5.00
2023-01-17T08:57:01.028Z,5.00
2023-01-17T08:59:27.787Z,4.80
2023-01-17T09:01:55.405Z,4.70
2023-01-17T09:04:22.322Z,4.60
2023-01-17T09:06:49.371Z,4.60
2023-01-17T09:09:17.339Z,4.50
2023-01-17T09:11:44.169Z,4.50
2023-01-17T09:14:14.561Z,4.50
2023-01-17T09:16:41.402Z,4.50
2023-01-17T09:19:08.912Z,4.60
2023-01-17T09:21:35.713Z,4.70
2023-01-17T09:24:02.559Z,4.70
2023-01-17T09:26:30.161Z,4.70
2023-01-17T09:28:58.579Z,4.80
2023-01-17T09:31:27.208Z,4.70
2023-01-17T09:33:55.890Z,4.80
2023-01-17T09:36:24.039Z,4.80
2023-01-17T09:38:57.715Z,4.80
2023-01-17T09:41:29.797Z,4.80
2023-01-17T09:44:02.855Z,4.90
2023-01-17T09:46:33.650Z,4.90
2023-01-17T09:49:06.953Z,4.80
2023-01-17T09:51:34.040Z,4.80
2023-01-17T09:54:02.715Z,4.90
2023-01-17T09:56:35.537Z,4.80
2023-01-17T09:59:33.011Z,4.90
2023-01-17T10:02:30.371Z,5.00
2023-01-17T10:05:14.648Z,4.90
2023-01-17T10:08:05.673Z,4.90
2023-01-17T10:10:53.943Z,4.80
2023-01-17T10:13:41.954Z,4.90
2023-01-17T10:16:36.228Z,4.90
2023-01-17T10:19:23.619Z,4.70
2023-01-17T10:22:02.440Z,4.80
2023-01-17T10:24:41.170Z,4.80
2023-01-17T10:27:23.571Z,4.90
2023-01-17T10:29:51.523Z,4.80
2023-01-17T10:32:22.073Z,4.70
2023-01-17T10:34:53.127Z,4.90
2023-01-17T10:37:25.731Z,4.90
2023-01-17T10:39:56.009Z,5.00
2023-01-17T10:42:32.145Z,5.00
2023-01-17T10:45:16.188Z,4.90
2023-01-17T10:47:48.202Z,4.90
2023-01-17T10:50:15.379Z,5.10
2023-01-17T10:52:56.643Z,5.10
2023-01-17T10:55:43.992Z,5.10
2023-01-17T10:58:13.998Z,5.10
2023-01-17T11:01:00.926Z,5.20
2023-01-17T11:03:28.696Z,5.30
2023-01-17T11:06:14.823Z,5.20
2023-01-17T11:08:52.551Z,5.00
2023-01-17T11:11:23.283Z,5.10
2023-01-17T11:13:52.034Z,5.10
2023-01-17T11:16:22.816Z,5.10
2023-01-17T11:19:14.725Z,5.00
2023-01-17T11:22:01.773Z,5.00
2023-01-17T11:24:35.298Z,5.10
2023-01-17T11:27:05.434Z,5.10
2023-01-17T11:29:37.536Z,5.00
2023-01-17T11:32:22.594Z,5.10
2023-01-17T11:35:09.652Z,5.10
2023-01-17T11:37:36.987Z,5.20
2023-01-17T11:40:21.408Z,5.10
2023-01-17T11:43:25.471Z,5.10
2023-01-17T11:46:14.601Z,5.10
2023-01-17T11:48:41.533Z,5.20
2023-01-17T11:51:33.781Z,5.10
2023-01-17T11:54:15.605Z,5.10
2023-01-17T11:56:46.124Z,5.10
2023-01-17T11:59:30.404Z,5.20
2023-01-17T12:02:24.355Z,5.00
2023-01-17T12:05:10.126Z,5.00
2023-01-17T12:07:49.102Z,5.00
2023-01-17T12:10:43.602Z,5.00
2023-01-17T12:13:50.535Z,5.10
2023-01-17T12:16:31.764Z,5.00
2023-01-17T12:19:04.452Z,4.90
2023-01-17T12:21:40.323Z,5.00
2023-01-17T12:24:46.380Z,5.10
2023-01-17T12:27:42.576Z,5.10
2023-01-17T12:30:27.730Z,5.10
2023-01-17T12:33:09.690Z,5.00
2023-01-17T12:35:43.982Z,5.00
2023-01-17T12:38:27.471Z,5.10
2023-01-17T12:41:23.419Z,5.10
2023-01-17T12:43:55.448Z,5.10
2023-01-17T12:46:30.355Z,5.00
2023-01-17T12:49:04.886Z,5.00
2023-01-17T12:51:38.446Z,5.00
2023-01-17T12:54:24.463Z,5.10
2023-01-17T12:56:58.850Z,5.10
2023-01-17T12:59:48.731Z,5.20
2023-01-17T13:02:21.195Z,5.30
2023-01-17T13:04:59.219Z,5.30
2023-01-17T13:07:50.045Z,5.30
2023-01-17T13:10:22.777Z,5.40
2023-01-17T13:12:50.776Z,5.60
2023-01-17T13:15:23.230Z,5.70
2023-01-17T13:17:55.830Z,5.80
2023-01-17T13:20:33.394Z,6.30
2023-01-17T13:23:16.927Z,6.50
2023-01-17T13:25:50.374Z,7.00
2023-01-17T13:28:23.526Z,7.40
2023-01-17T13:31:08.350Z,7.80
2023-01-17T13:34:05.996Z,8.00
2023-01-17T13:37:08.674Z,8.10
2023-01-17T13:40:03.210Z,7.90
2023-01-17T13:42:53.531Z,7.80
2023-01-17T13:45:24.254Z,7.80
2023-01-17T13:47:52.557Z,8.10
2023-01-17T13:50:38.197Z,8.10
2023-01-17T13:53:36.957Z,7.80
2023-01-17T13:56:18.825Z,8.00
2023-01-17T13:58:54.920Z,8.10
2023-01-17T14:01:25.069Z,8.10
2023-01-17T14:03:52.048Z,8.20
2023-01-17T14:06:44.775Z,8.30
2023-01-17T14:09:31.010Z,8.20
2023-01-17T14:11:59.397Z,8.20
2023-01-17T14:14:44.430Z,8.10
2023-01-17T14:17:20.615Z,7.90
2023-01-17T14:20:01.960Z,7.80
2023-01-17T14:22:32.813Z,7.70
2023-01-17T14:25:11.803Z,7.80
2023-01-17T14:27:50.267Z,7.80
2023-01-17T14:30:20.146Z,7.70
2023-01-17T14:32:59.122Z,7.60
2023-01-17T14:35:57.553Z,7.50
2023-01-17T14:38:30.056Z,7.40
2023-01-17T14:41:00.663Z,7.10
2023-01-17T14:43:32.307Z,7.00
2023-01-17T14:46:22.589Z,6.70
2023-01-17T14:48:50.868Z,6.60
2023-01-17T14:51:21.407Z,6.10
2023-01-17T14:53:59.554Z,6.10
2023-01-17T14:56:28.206Z,5.90
2023-01-17T14:59:19.648Z,5.70
2023-01-17T15:02:07.237Z,5.50
2023-01-17T15:04:39.821Z,5.40
2023-01-17T15:07:07.772Z,5.30
2023-01-17T15:09:38.570Z,5.10
2023-01-17T15:12:14.466Z,5.00
2023-01-17T15:14:45.761Z,4.90
2023-01-17T15:17:19.837Z,4.70
2023-01-17T15:20:03.406Z,4.60
2023-01-17T15:22:30.841Z,4.60
2023-01-17T15:24:58.986Z,4.50
2023-01-17T15:27:26.299Z,4.40
2023-01-17T15:29:54.058Z,4.40
2023-01-17T15:32:23.898Z,4.40
2023-01-17T15:34:52.347Z,4.30
2023-01-17T15:37:34.841Z,4.20
2023-01-17T15:40:19.058Z,4.20
2023-01-17T15:42:58.327Z,4.10
2023-01-17T15:45:33.322Z,4.10
2023-01-17T15:48:40.595Z,4.10
2023-01-17T15:51:09.171Z,4.00
2023-01-17T15:53:39.047Z,4.00
2023-01-17T15:56:32.898Z,3.90
2023-01-17T15:59:27.346Z,3.90
2023-01-17T16:01:58.134Z,3.80
2023-01-17T16:04:37.266Z,3.80
2023-01-17T16:07:34.090Z,3.80
2023-01-17T16:10:36.303Z,3.70
2023-01-17T16:13:05.778Z,3.70
2023-01-17T16:15:35.326Z,3.60
2023-01-17T16:18:06.766Z,3.60
2023-01-17T16:20:41.517Z,3.50
2023-01-17T16:23:09.896Z,3.50
2023-01-17T16:25:36.741Z,3.50
2023-01-17T16:28:04.101Z,3.50
2023-01-17T16:30:31.668Z,3.40
2023-01-17T16:32:59.303Z,3.40
2023-01-17T16:35:31.676Z,3.40
2023-01-17T16:38:05.092Z,3.40
2023-01-17T16:40:38.160Z,3.40
2023-01-17T16:43:05.079Z,3.30
2023-01-17T16:45:38.998Z,3.30
2023-01-17T16:48:06.163Z,3.30
2023-01-17T16:50:32.995Z,3.20
2023-01-17T16:52:59.965Z,3.20
2023-01-17T16:55:27.142Z,3.20
2023-01-17T16:57:58.192Z,3.20
2023-01-17T17:00:26.830Z,3.20
2023-01-17T17:02:54.268Z,3.10
2023-01-17T17:05:21.193Z,3.10
2023-01-17T17:07:51.565Z,3.10
2023-01-17T17:10:20.578Z,3.20
2023-01-17T17:12:47.659Z,3.10
2023-01-17T17:15:14.661Z,3.10
2023-01-17T17:17:43.337Z,3.10
2023-01-17T17:20:12.796Z,3.20
2023-01-17T17:22:43.006Z,3.10
2023-01-17T17:25:10.435Z,3.10
2023-01-17T17:27:37.656Z,3.10
2023-01-17T17:30:05.085Z,3.00
2023-01-17T17:32:32.384Z,3.00
2023-01-17T17:34:59.182Z,3.10
2023-01-17T17:37:28.836Z,3.00
2023-01-17T17:39:57.004Z,3.00
2023-01-17T17:42:23.982Z,2.90
2023-01-17T17:44:50.882Z,2.90
2023-01-17T17:47:17.941Z,2.90
2023-01-17T17:49:44.911Z,3.00
2023-01-17T17:52:11.803Z,2.90
2023-01-17T17:54:38.618Z,2.90
2023-01-17T17:57:06.574Z,2.90
2023-01-17T17:59:33.578Z,2.90
2023-01-17T18:02:00.377Z,2.90
2023-01-17T18:04:27.577Z,2.80
2023-01-17T18:06:58.385Z,2.90
2023-01-17T18:09:25.369Z,2.80
2023-01-17T18:11:52.434Z,2.80
2023-01-17T18:14:22.173Z,2.80
2023-01-17T18:16:49.041Z,2.70
2023-01-17T18:19:22.143Z,2.60
2023-01-17T18:21:50.456Z,2.60
2023-01-17T18:24:22.771Z,2.60
2023-01-17T18:26:56.026Z,2.60
2023-01-17T18:29:23.945Z,2.50
2023-01-17T18:31:51.847Z,2.50
2023-01-17T18:34:23.958Z,2.50
2023-01-17T18:36:51.533Z,2.50
2023-01-17T18:39:26.872Z,2.40
2023-01-17T18:41:54.795Z,2.50
2023-01-17T18:44:22.630Z,2.50
2023-01-17T18:46:50.935Z,2.50
2023-01-17T18:49:20.958Z,2.50
2023-01-17T18:51:50.944Z,2.50
2023-01-17T18:54:19.936Z,2.40
2023-01-17T18:56:47.196Z,2.40
2023-01-17T18:59:18.157Z,2.40
2023-01-17T19:01:45.599Z,2.40
2023-01-17T19:04:14.714Z,2.40
2023-01-17T19:06:43.851Z,2.30
2023-01-17T19:09:12.464Z,2.30
2023-01-17T19:11:39.911Z,2.20
2023-01-17T19:14:07.404Z,2.20
2023-01-17T19:16:39.183Z,2.20
2023-01-17T19:19:08.669Z,2.20
2023-01-17T19:21:36.025Z,2.10
2023-01-17T19:24:03.797Z,2.20
2023-01-17T19:26:30.889Z,2.10
2023-01-17T19:29:03.763Z,2.20
2023-01-17T19:31:32.592Z,2.10
2023-01-17T19:34:00.175Z,2.10
2023-01-17T19:36:31.629Z,2.10
2023-01-17T19:39:04.974Z,2.10
2023-01-17T19:41:34.918Z,2.00
2023-01-17T19:44:06.232Z,2.00
2023-01-17T19:46:33.838Z,2.10
2023-01-17T19:49:01.126Z,2.00
2023-01-17T19:51:28.828Z,2.00
2023-01-17T19:53:56.785Z,2.00
2023-01-17T19:56:25.858Z,2.00
2023-01-17T19:58:53.455Z,2.00
2023-01-17T20:01:28.450Z,2.00
2023-01-17T20:03:58.152Z,2.00
2023-01-17T20:06:29.009Z,2.00
2023-01-17T20:08:56.401Z,2.00
2023-01-17T20:11:25.091Z,2.00
2023-01-17T20:13:54.660Z,1.90
2023-01-17T20:16:22.820Z,1.90
2023-01-17T20:18:50.140Z,1.90
2023-01-17T20:21:20.007Z,2.00
2023-01-17T20:23:48.517Z,1.90
2023-01-17T20:26:36.152Z,1.90
2023-01-17T20:29:21.234Z,1.90
2023-01-17T20:31:52.529Z,2.00
2023-01-17T20:34:20.132Z,1.90
2023-01-17T20:36:50.036Z,1.80
2023-01-17T20:39:17.010Z,1.90
2023-01-17T20:41:46.464Z,1.90
2023-01-17T20:44:15.379Z,1.90
2023-01-17T20:46:43.319Z,1.90
2023-01-17T20:49:16.086Z,1.90
2023-01-17T20:51:44.643Z,1.90
2023-01-17T20:54:23.487Z,2.00
2023-01-17T20:56:51.485Z,1.90
2023-01-17T20:59:21.762Z,2.00
2023-01-17T21:01:49.662Z,1.90
2023-01-17T21:05:03.796Z,2.00
2023-01-17T21:07:30.652Z,2.00
2023-01-17T21:09:57.536Z,2.00
2023-01-17T21:12:24.530Z,2.10
2023-01-17T21:14:51.368Z,2.00
2023-01-17T21:17:19.350Z,2.00
2023-01-17T21:19:46.655Z,2.00
2023-01-17T21:22:16.706Z,2.00
2023-01-17T21:24:43.581Z,1.90
2023-01-17T21:27:12.368Z,1.90
2023-01-17T21:29:39.241Z,2.00
2023-01-17T21:32:06.356Z,2.10
2023-01-17T21:34:34.686Z,2.00
2023-01-17T21:37:01.604Z,2.00
2023-01-17T21:39:29.381Z,2.00
2023-01-17T21:41:56.244Z,2.00
2023-01-17T21:44:23.493Z,2.00
2023-01-17T21:46:56.177Z,2.10
2023-01-17T21:49:23.837Z,2.10
2023-01-17T21:51:53.457Z,2.10
2023-01-17T21:54:44.472Z,2.10
2023-01-17T21:57:31.388Z,2.10
2023-01-17T21:59:58.224Z,2.10
2023-01-17T22:02:25.181Z,2.10
2023-01-17T22:04:52.157Z,2.00
2023-01-17T22:07:19.184Z,1.90
2023-01-17T22:09:46.194Z,1.80
2023-01-17T22:12:13.076Z,1.80
2023-01-17T22:14:40.029Z,1.80
2023-01-17T22:17:08.614Z,1.80
2023-01-17T22:19:35.467Z,1.80
2023-01-17T22:22:02.619Z,1.90
2023-01-17T22:24:29.419Z,1.80
2023-01-17T22:26:56.266Z,1.70
2023-01-17T22:29:23.274Z,1.70
2023-01-17T22:31:50.299Z,1.70
2023-01-17T22:34:19.012Z,1.70
2023-01-17T22:36:46.071Z,1.70
2023-01-17T22:39:13.094Z,1.60
2023-01-17T22:41:40.041Z,1.80
2023-01-17T22:44:07.611Z,1.80
2023-01-17T22:46:38.446Z,1.80
2023-01-17T22:49:07.695Z,1.80
2023-01-17T22:51:35.159Z,1.80
2023-01-17T22:54:02.106Z,1.80
2023-01-17T22:56:31.521Z,1.80
2023-01-17T22:59:00.800Z,1.80
2023-01-17T23:01:32.824Z,1.80
2023-01-17T23:04:02.563Z,1.80
2023-01-17T23:06:38.116Z,1.80
2023-01-17T23:09:11.536Z,1.90
2023-01-17T23:11:49.801Z,1.80
2023-01-17T23:14:19.543Z,1.80
2023-01-17T23:17:10.561Z,1.80
2023-01-17T23:19:49.426Z,1.80
2023-01-17T23:22:22.216Z,1.80
2023-01-17T23:24:50.956Z,1.80
2023-01-17T23:27:56.144Z,1.80
2023-01-17T23:30:50.320Z,1.80
2023-01-17T23:33:18.034Z,1.80
2023-01-17T23:35:48.764Z,1.80
2023-01-17T23:38:25.980Z,1.80
2023-01-17T23:41:17.451Z,1.80
2023-01-17T23:43:44.476Z,1.90
2023-01-17T23:46:12.595Z,1.90
2023-01-17T23:48:39.599Z,1.90
2023-01-17T23:51:09.211Z,1.90
2023-01-17T23:53:39.829Z,1.90
2023-01-17T23:56:14.657Z,1.90
2023-01-17T23:58:41.716Z,1.90
